createdAt,value
2023-04-25T00:00:00.796Z,1.60
2023-04-25T00:02:29.610Z,3.80
2023-04-25T00:04:59.411Z,1.40
2023-04-25T00:07:27.801Z,2.00
2023-04-25T00:09:55.711Z,2.70
2023-04-25T00:12:23.977Z,4.10
2023-04-25T00:14:52.450Z,1.80
2023-04-25T00:17:20.410Z,4.10
2023-04-25T00:19:48.454Z,2.70
2023-04-25T00:22:16.919Z,5.60
2023-04-25T00:24:44.737Z,1.30
2023-04-25T00:27:12.585Z,3.20
2023-04-25T00:29:40.519Z,4.10
2023-04-25T00:32:08.491Z,8.60
2023-04-25T00:34:37.192Z,2.10
2023-04-25T00:37:05.095Z,2.20
2023-04-25T00:39:33.118Z,3.80
2023-04-25T00:42:03.119Z,3.60
2023-04-25T00:44:33.254Z,1.50
2023-04-25T00:47:03.654Z,2.30
2023-04-25T00:49:31.680Z,1.50
2023-04-25T00:52:00.195Z,1.90
2023-04-25T00:54:28.170Z,3.10
2023-04-25T00:56:56.493Z,2.80
2023-04-25T00:59:25.298Z,3.20
2023-04-25T01:01:53.505Z,2.40
2023-04-25T01:04:22.577Z,1.50
2023-04-25T01:06:50.896Z,2.30
2023-04-25T01:09:20.611Z,1.70
2023-04-25T01:11:48.475Z,1.60
2023-04-25T01:14:16.479Z,3.50
2023-04-25T01:16:45.991Z,1.40
2023-04-25T01:19:18.107Z,4.00
2023-04-25T01:21:48.324Z,2.90
2023-04-25T01:24:17.067Z,1.40
2023-04-25T01:26:50.668Z,1.80
2023-04-25T01:29:24.155Z,4.50
2023-04-25T01:31:53.937Z,2.40
2023-04-25T01:34:22.807Z,5.40
2023-04-25T01:36:51.685Z,2.60
2023-04-25T01:39:19.920Z,5.00
2023-04-25T01:41:48.996Z,3.50
2023-04-25T01:44:17.619Z,3.10
2023-04-25T01:46:45.570Z,5.30
2023-04-25T01:49:13.558Z,3.40
2023-04-25T01:51:42.705Z,5.00
2023-04-25T01:54:12.242Z,4.30
2023-04-25T01:56:41.351Z,4.10
2023-04-25T01:59:11.835Z,5.30
2023-04-25T02:01:58.724Z,4.70
2023-04-25T02:04:29.912Z,3.00
2023-04-25T02:06:58.632Z,3.60
2023-04-25T02:09:33.459Z,6.50
2023-04-25T02:12:05.638Z,6.50
2023-04-25T02:14:46.347Z,4.40
2023-04-25T02:17:47.162Z,4.60
2023-04-25T02:20:17.038Z,3.90
2023-04-25T02:22:44.868Z,5.10
2023-04-25T02:25:13.340Z,5.40
2023-04-25T02:27:41.251Z,5.60
2023-04-25T02:30:09.767Z,4.20
2023-04-25T02:32:39.526Z,5.10
2023-04-25T02:35:08.135Z,6.00
2023-04-25T02:37:37.615Z,6.90
2023-04-25T02:40:06.787Z,4.20
2023-04-25T02:42:35.066Z,5.70
2023-04-25T02:45:03.772Z,5.20
2023-04-25T02:47:31.821Z,6.60
2023-04-25T02:50:00.267Z,4.10
2023-04-25T02:52:28.499Z,4.10
2023-04-25T02:55:01.383Z,5.50
2023-04-25T02:57:30.555Z,6.30
2023-04-25T02:59:58.692Z,4.90
2023-04-25T03:02:26.642Z,8.60
2023-04-25T03:04:55.069Z,4.20
2023-04-25T03:07:22.923Z,7.40
2023-04-25T03:09:50.907Z,7.70
2023-04-25T03:12:18.974Z,5.00
2023-04-25T03:14:46.825Z,5.30
2023-04-25T03:17:14.829Z,6.10
2023-04-25T03:19:42.821Z,6.80
2023-04-25T03:22:10.878Z,5.20
2023-04-25T03:24:38.905Z,7.40
2023-04-25T03:27:06.872Z,7.00
2023-04-25T03:29:34.997Z,6.30
2023-04-25T03:32:05.037Z,8.50
2023-04-25T03:34:33.155Z,6.60
2023-04-25T03:37:01.785Z,7.10
2023-04-25T03:39:30.959Z,7.80
2023-04-25T03:41:59.078Z,8.70
2023-04-25T03:44:26.971Z,6.20
2023-04-25T03:46:54.850Z,6.30
2023-04-25T03:49:24.020Z,6.40
2023-04-25T03:52:12.206Z,8.70
2023-04-25T03:54:41.182Z,7.20
2023-04-25T03:57:15.753Z,6.90
2023-04-25T03:59:44.274Z,8.20
2023-04-25T04:02:14.052Z,6.30
2023-04-25T04:04:45.438Z,8.20
2023-04-25T04:07:34.811Z,5.70
2023-04-25T04:10:18.330Z,7.70
2023-04-25T04:13:33.592Z,7.50
2023-04-25T04:16:59.183Z,6.80
2023-04-25T04:20:37.842Z,6.50
2023-04-25T04:26:59.299Z,5.50
2023-04-25T04:31:09.408Z,8.00
2023-04-25T04:41:57.614Z,8.00
2023-04-25T04:45:46.941Z,9.50
2023-04-25T04:57:38.078Z,9.60
2023-04-25T05:01:29.346Z,6.20
2023-04-25T05:04:56.469Z,6.50
2023-04-25T05:19:17.559Z,7.00
2023-04-25T05:23:06.594Z,7.00
2023-04-25T05:35:11.833Z,7.10
2023-04-25T05:46:09.593Z,8.20
2023-04-25T05:49:24.290Z,6.40
2023-04-25T05:53:01.724Z,8.30
2023-04-25T05:56:53.784Z,7.90
2023-04-25T06:09:50.711Z,9.80
2023-04-25T06:13:39.676Z,7.90
2023-04-25T06:17:34.700Z,14.00
2023-04-25T06:24:49.241Z,8.40
2023-04-25T06:28:13.292Z,8.60
2023-04-25T06:31:38.172Z,11.10
2023-04-25T06:35:01.986Z,8.70
2023-04-25T06:38:21.958Z,9.00
2023-04-25T06:53:12.634Z,10.20
2023-04-25T07:00:24.975Z,14.60
2023-04-25T07:11:35.240Z,9.40
2023-04-25T07:15:05.922Z,12.40
2023-04-25T07:18:45.084Z,10.40
2023-04-25T07:29:06.882Z,10.40
2023-04-25T07:32:55.960Z,6.80
2023-04-25T07:36:45.080Z,9.50
2023-04-25T07:47:54.464Z,11.00
2023-04-25T07:51:43.570Z,14.50
2023-04-25T08:02:38.600Z,7.30
2023-04-25T08:06:27.973Z,13.20
2023-04-25T08:27:00.197Z,7.50
2023-04-25T08:30:26.728Z,6.30
2023-04-25T08:34:07.419Z,8.70
2023-04-25T08:42:14.459Z,10.70
2023-04-25T08:53:46.992Z,8.50
2023-04-25T08:57:35.873Z,6.00
2023-04-25T09:01:21.631Z,6.40
2023-04-25T09:12:47.580Z,8.30
2023-04-25T09:16:37.657Z,8.60
2023-04-25T09:28:32.033Z,7.10
2023-04-25T09:44:02.071Z,6.30
2023-04-25T09:47:35.112Z,7.50
2023-04-25T09:51:08.966Z,5.20
2023-04-25T10:05:47.152Z,4.40
2023-04-25T10:09:36.123Z,6.40
2023-04-25T10:13:02.897Z,8.20
2023-04-25T10:16:32.070Z,8.10
2023-04-25T10:27:53.126Z,7.90
2023-04-25T10:31:35.541Z,4.50
2023-04-25T10:43:22.950Z,10.10
2023-04-25T10:54:59.469Z,10.80
2023-04-25T11:06:18.547Z,7.10
2023-04-25T11:09:52.822Z,7.70
2023-04-25T11:13:20.272Z,5.20
2023-04-25T11:20:19.653Z,7.20
2023-04-25T11:24:08.673Z,6.60
2023-04-25T11:27:47.170Z,6.40
2023-04-25T11:38:35.492Z,5.20
2023-04-25T11:42:20.704Z,7.10
2023-04-25T11:52:47.537Z,6.40
2023-04-25T11:55:41.203Z,6.80
2023-04-25T11:59:45.204Z,6.30
2023-04-25T12:03:08.986Z,6.70
2023-04-25T12:06:44.217Z,5.60
2023-04-25T12:17:06.336Z,6.60
2023-04-25T12:20:55.402Z,7.50
2023-04-25T12:24:29.515Z,7.80
2023-04-25T12:35:27.841Z,5.10
2023-04-25T12:39:25.993Z,3.80
2023-04-25T12:51:01.283Z,3.40
2023-04-25T13:02:11.830Z,4.00
2023-04-25T13:05:56.711Z,4.10
2023-04-25T13:24:07.228Z,9.00
2023-04-25T13:27:36.191Z,8.80
2023-04-25T13:31:15.556Z,21.30
2023-04-25T13:42:58.496Z,7.50
2023-04-25T13:54:06.058Z,7.40
2023-04-25T13:57:30.047Z,6.80
2023-04-25T14:04:53.180Z,8.90
2023-04-25T14:08:10.993Z,15.40
2023-04-25T14:11:23.270Z,18.30
2023-04-25T14:14:46.414Z,11.40
2023-04-25T14:17:53.995Z,11.60
2023-04-25T14:20:35.885Z,10.70
2023-04-25T14:24:03.897Z,9.50
2023-04-25T14:37:22.184Z,6.10
2023-04-25T14:40:51.238Z,9.30
2023-04-25T14:44:16.357Z,7.50
2023-04-25T14:54:46.922Z,7.00
2023-04-25T14:58:01.050Z,9.10
2023-04-25T15:08:38.814Z,6.00
2023-04-25T15:12:21.978Z,8.30
2023-04-25T15:16:11.059Z,11.50
2023-04-25T15:33:15.776Z,10.60
2023-04-25T15:36:37.337Z,10.50
2023-04-25T15:47:02.845Z,9.20
2023-04-25T15:50:37.072Z,10.40
2023-04-25T15:54:14.872Z,11.60
2023-04-25T15:57:54.247Z,12.80
2023-04-25T16:08:40.419Z,20.30
2023-04-25T16:11:49.654Z,36.00
2023-04-25T16:15:27.308Z,24.40
2023-04-25T16:18:54.929Z,16.00
2023-04-25T16:22:05.834Z,21.90
2023-04-25T16:25:23.408Z,24.40
2023-04-25T16:42:04.694Z,12.10
2023-04-25T16:45:20.819Z,17.50
2023-04-25T16:48:20.802Z,15.10
2023-04-25T16:51:59.980Z,19.40
2023-04-25T17:09:12.055Z,12.60
2023-04-25T17:12:09.846Z,15.60
2023-04-25T17:15:07.288Z,15.30
2023-04-25T17:17:49.947Z,14.60
2023-04-25T17:20:44.195Z,14.10
2023-04-25T17:24:18.219Z,14.60
2023-04-25T17:34:23.489Z,16.70
2023-04-25T17:37:36.708Z,14.70
2023-04-25T17:41:19.476Z,14.80
2023-04-25T17:52:10.132Z,14.00
2023-04-25T17:55:39.254Z,18.20
2023-04-25T18:10:12.529Z,17.40
2023-04-25T18:13:53.433Z,17.20
2023-04-25T18:17:30.621Z,23.00
2023-04-25T18:31:26.426Z,30.80
2023-04-25T18:35:17.996Z,26.30
2023-04-25T18:43:27.614Z,13.70
2023-04-25T19:06:07.292Z,30.30
2023-04-25T19:09:56.338Z,19.80
2023-04-25T19:13:17.524Z,22.40
2023-04-25T19:19:12.517Z,25.50
2023-04-25T19:22:37.084Z,22.40
2023-04-25T19:30:13.549Z,29.20
2023-04-25T19:34:02.823Z,34.50
2023-04-25T19:40:24.127Z,30.20
2023-04-25T19:43:55.455Z,27.10
2023-04-25T20:01:55.326Z,23.00
2023-04-25T20:05:20.672Z,28.20
2023-04-25T20:08:24.745Z,63.20
2023-04-25T20:12:03.635Z,44.70
2023-04-25T20:14:56.739Z,42.80
2023-04-25T20:26:04.848Z,26.80
2023-04-25T20:28:38.052Z,24.00
2023-04-25T20:31:54.044Z,48.80
2023-04-25T20:35:43.060Z,19.60
2023-04-25T20:46:09.714Z,29.80
2023-04-25T20:49:24.183Z,269.20
2023-04-25T20:52:18.896Z,157.30
2023-04-25T20:55:41.597Z,35.60
2023-04-25T20:58:44.066Z,32.30
2023-04-25T21:01:47.353Z,67.30
2023-04-25T21:21:05.343Z,293.90
2023-04-25T21:23:48.638Z,454.70
2023-04-25T21:27:13.272Z,143.90
2023-04-25T21:29:57.977Z,140.10
2023-04-25T21:33:17.695Z,73.40
2023-04-25T21:36:37.829Z,49.60
2023-04-25T21:39:52.576Z,36.40
2023-04-25T21:43:39.770Z,17.20
2023-04-25T21:54:38.791Z,100.50
2023-04-25T21:57:55.219Z,50.50
2023-04-25T22:00:59.857Z,24.50
2023-04-25T22:04:34.044Z,14.80
2023-04-25T22:07:30.591Z,17.20
2023-04-25T22:11:07.460Z,56.00
2023-04-25T22:13:54.936Z,20.40
2023-04-25T22:16:47.121Z,14.10
2023-04-25T22:24:09.580Z,18.40
2023-04-25T22:27:34.344Z,13.70
2023-04-25T22:30:47.754Z,15.10
2023-04-25T22:44:41.206Z,16.70
2023-04-25T22:47:43.219Z,13.40
2023-04-25T22:50:38.385Z,17.50
2023-04-25T22:54:10.665Z,40.50
2023-04-25T23:05:34.233Z,112.00
2023-04-25T23:09:04.728Z,189.50
2023-04-25T23:12:05.951Z,251.30
2023-04-25T23:14:55.413Z,92.60
2023-04-25T23:22:10.992Z,336.50
2023-04-25T23:25:34.579Z,378.80
2023-04-25T23:40:28.702Z,296.60
2023-04-25T23:44:27.205Z,69.70
2023-04-25T23:52:05.534Z,156.10
2023-04-25T23:55:58.909Z,74.40
